Aviation Digital Data Service (ADDS)

Output produced by METARs form (0949 UTC 19 September 2014)
found at http://www.aviationweather.gov/adds/metars/
 
KLNS 190853Z AUTO 00000KT 10SM CLR 10/08 A3020 RMK AO2 SLP225 T01000078 53015
KLNS 190753Z AUTO 00000KT 10SM CLR 12/09 A3018 RMK AO2 SLP218 T01220089
KLNS 190653Z AUTO 06005KT 10SM CLR 12/08 A3016 RMK AO2 SLP213 T01170083
KLNS 190553Z AUTO 05006KT 10SM CLR 13/09 A3015 RMK AO2 SLP210 T01330089 10172 20106 51017
KLNS 190453Z AUTO 00000KT 10SM CLR 12/08 A3014 RMK AO2 SLP204 T01220078 402390094
KLNS 190353Z AUTO 00000KT 10SM CLR 11/08 A3012 RMK AO2 SLP199 T01060078
KLNS 190253Z 00000KT 10SM CLR 14/07 A3010 RMK AO2 SLP193 T01440072 51019
KLNS 190153Z 00000KT 10SM CLR 15/07 A3009 RMK AO2 SLP188 T01500072
KLNS 190053Z 32004KT 10SM CLR 16/07 A3007 RMK AO2 SLP183 T01610067
KLNS 182353Z 32003KT 10SM CLR 17/07 A3005 RMK AO2 SLP174 T01670067 10239 20161 53013
KLNS 182253Z 34004KT 10SM CLR 19/06 A3003 RMK AO2 SLP169 T01940061
KLNS 182153Z 35005KT 10SM CLR 22/04 A3002 RMK AO2 SLP165 T02220039
KLNS 182053Z 35008KT 10SM SCT065 23/07 A3001 RMK AO2 SLP161 T02330067 53000
KLNS 181953Z 35006KT 10SM BKN070 23/07 A3001 RMK AO2 SLP160 T02280067
KLNS 181853Z 35008KT 10SM FEW060 24/07 A3000 RMK AO2 SLP159 T02390072
KLNS 181753Z 10SM FEW060 22/08 A3001 RMK AO2 SLP161 T02220078 10233 20111 58007
KLNS 181653Z VRB06KT 10SM FEW050 BKN065 OVC110 22/09 A3002 RMK AO2 SLP165 T02170094
KLNS 181553Z 00000KT 10SM BKN065 21/11 A3002 RMK AO2 SLP165 T02060106
KLNS 181453Z 00000KT 10SM BKN065 18/11 A3003 RMK AO2 SLP168 T01830111 51006
KLNS 181353Z 00000KT 7SM BKN060 BKN075 16/12 A3003 RMK AO2 SLP168 T01560117
KLNS 181253Z 00000KT 7SM BKN065 OVC075 13/10 A3002 RMK AO2 SLP165 T01280100
KLNS 181153Z 00000KT 6SM BR SCT080 11/09 A3001 RMK AO2 SLP163 T01110094 10111 20094 53008
KLNS 181053Z 00000KT 7SM BKN065 OVC085 11/09 A3000 RMK AO2 SLP159 T01060089
KLNS 180953Z AUTO 00000KT 6SM BR OVC080 10/09 A2999 RMK AO2 SLP155 T01000089
KLNS 180853Z AUTO 00000KT 7SM OVC080 10/08 A2999 RMK AO2 SLP153 T01000083 53005
KLNS 180753Z AUTO 00000KT 8SM BKN075 11/08 A2997 RMK AO2 SLP148 T01060083
KLNS 180653Z AUTO 00000KT 7SM CLR 09/08 A2997 RMK AO2 SLP149 T00940083
KLNS 180553Z AUTO 11004KT 6SM BR CLR 10/09 A2997 RMK AO2 SLP148 T01000089 10167 20100 58007
KLNS 180453Z AUTO 00000KT 7SM CLR 11/09 A2998 RMK AO2 SLP152 T01060089 402280089
KLNS 180353Z AUTO 08003KT 9SM CLR 12/10 A2999 RMK AO2 SLP154 T01220100
KLNS 180253Z 10003KT 10SM CLR 13/09 A2999 RMK AO2 SLP155 T01280094 53005
KLNS 180153Z 06003KT 10SM CLR 13/09 A2999 RMK AO2 SLP154 T01280089
KLNS 180053Z 05004KT 10SM CLR 17/08 A2998 RMK AO2 SLP151 T01670078
KLNS 172353Z 00000KT 10SM CLR 17/09 A2998 RMK AO2 SLP151 T01670089 10228 20167 51003
KLNS 172253Z 34003KT 10SM BKN070 18/09 A2998 RMK AO2 SLP151 T01830089
KLNS 172153Z 30005KT 10SM BKN070 22/07 A2997 RMK AO2 SLP148 T02170072